Time;durP1;ratioP1;P1;durP2;ratioP2;P2;SDS_P1;SDS_P2;PMS_P1;PMS_P2;Temp;Humidity;BMP_temperature;BMP_pressure;BME280_temperature;BME280_humidity;BME280_pressure;Samples;Min_cycle;Max_cycle;Signal;HPM_P1;HPM_P2
2022/04/20 00:02:24;;;;;;;3.57;1.97;;;;;;;;;;5003512;28;20212;-76
2022/04/20 00:04:53;;;;;;;7.00;2.30;;;;;;;;;;4999895;28;20671;-77
2022/04/20 00:07:20;;;;;;;10.23;2.20;;;;;;;;;;4995492;28;20201;-77
2022/04/20 00:09:49;;;;;;;6.27;2.37;;;;;;;;;;4997206;28;20205;-77
2022/04/20 00:12:16;;;;;;;4.93;2.10;;;;;;;;;;4997954;28;20308;-75
2022/04/20 00:14:43;;;;;;;4.33;2.37;;;;;;;;;;4998459;28;20687;-77
2022/04/20 00:17:10;;;;;;;6.87;2.03;;;;;;;;;;4991368;28;20217;-77
2022/04/20 00:19:37;;;;;;;5.70;2.50;;;;;;;;;;4990067;28;20217;-77
2022/04/20 00:22:05;;;;;;;9.83;2.40;;;;;;;;;;4997990;28;20311;-77
2022/04/20 00:24:32;;;;;;;6.13;2.70;;;;;;;;;;4999634;28;20240;-76
2022/04/20 00:27:01;;;;;;;5.87;2.70;;;;;;;;;;4993049;28;20227;-77
2022/04/20 00:29:28;;;;;;;10.93;2.73;;;;;;;;;;4996499;28;20204;-77
2022/04/20 00:31:55;;;;;;;4.57;2.13;;;;;;;;;;4995867;28;20235;-76
2022/04/20 00:34:23;;;;;;;5.83;2.33;;;;;;;;;;4997564;28;20213;-77
2022/04/20 00:36:53;;;;;;;5.53;2.23;;;;;;;;;;4998576;28;20207;-77
2022/04/20 00:39:20;;;;;;;4.37;2.13;;;;;;;;;;4998487;28;20220;-77
2022/04/20 00:41:47;;;;;;;4.67;2.07;;;;;;;;;;4998388;28;20239;-77
2022/04/20 00:44:15;;;;;;;4.10;2.00;;;;;;;;;;4992531;28;22421;-77
2022/04/20 00:46:43;;;;;;;5.53;2.70;;;;;;;;;;4997997;28;20677;-77
2022/04/20 00:49:11;;;;;;;4.27;2.53;;;;;;;;;;4999592;28;20208;-77
2022/04/20 00:51:39;;;;;;;3.70;2.23;;;;;;;;;;5000012;28;21038;-77
2022/04/20 00:54:06;;;;;;;4.47;2.20;;;;;;;;;;4998562;28;20820;-77
2022/04/20 00:56:34;;;;;;;5.43;2.40;;;;;;;;;;4999043;28;20627;-77
2022/04/20 00:59:02;;;;;;;4.43;2.27;;;;;;;;;;4995900;28;20687;-77
2022/04/20 01:01:31;;;;;;;5.33;2.73;;;;;;;;;;4998360;28;20239;-77
2022/04/20 01:03:58;;;;;;;10.20;3.03;;;;;;;;;;5000732;28;20718;-77
2022/04/20 01:06:26;;;;;;;9.57;3.20;;;;;;;;;;4997741;28;20205;-76
2022/04/20 01:08:53;;;;;;;6.90;2.80;;;;;;;;;;4997375;28;20201;-77
2022/04/20 01:11:20;;;;;;;4.80;2.60;;;;;;;;;;5001156;28;20239;-76
2022/04/20 01:13:47;;;;;;;4.67;2.47;;;;;;;;;;4997929;28;20323;-76
2022/04/20 01:16:14;;;;;;;5.93;2.73;;;;;;;;;;4999152;28;20216;-77
2022/04/20 01:18:45;;;;;;;5.80;2.53;;;;;;;;;;4998756;28;20225;-77
2022/04/20 01:21:14;;;;;;;8.37;2.93;;;;;;;;;;5000010;28;20316;-77
2022/04/20 01:23:42;;;;;;;6.00;2.77;;;;;;;;;;4995081;28;20288;-77
2022/04/20 01:26:09;;;;;;;5.93;2.90;;;;;;;;;;5005874;28;20208;-77
2022/04/20 01:28:38;;;;;;;5.10;2.77;;;;;;;;;;5002334;28;20201;-77
2022/04/20 01:31:06;;;;;;;9.83;3.23;;;;;;;;;;4995071;28;20225;-76
2022/04/20 01:33:33;;;;;;;4.97;2.50;;;;;;;;;;5000543;28;20646;-75
2022/04/20 01:36:00;;;;;;;5.53;2.87;;;;;;;;;;4998506;28;20209;-77
2022/04/20 01:38:29;;;;;;;6.60;2.73;;;;;;;;;;4994516;28;20207;-77
2022/04/20 01:40:56;;;;;;;7.57;3.17;;;;;;;;;;4996998;28;20319;-76
2022/04/20 01:43:24;;;;;;;7.83;2.87;;;;;;;;;;5001495;28;20920;-77
2022/04/20 01:45:51;;;;;;;9.37;2.97;;;;;;;;;;4998365;28;20754;-76
2022/04/20 01:48:18;;;;;;;6.57;3.30;;;;;;;;;;4998044;28;20208;-77
2022/04/20 01:53:31;;;;;;;7.50;3.27;;;;;;;;;;4999136;28;20215;-77
2022/04/20 01:56:00;;;;;;;5.57;2.97;;;;;;;;;;4997318;28;20205;-77
2022/04/20 01:58:27;;;;;;;8.67;4.17;;;;;;;;;;4999707;28;20209;-77
2022/04/20 02:00:54;;;;;;;6.27;3.27;;;;;;;;;;4997555;28;20725;-76
2022/04/20 02:03:20;;;;;;;6.53;3.10;;;;;;;;;;4996495;28;20211;-77
2022/04/20 02:05:48;;;;;;;8.90;3.10;;;;;;;;;;4995225;28;20197;-76
2022/04/20 02:08:15;;;;;;;7.03;3.03;;;;;;;;;;4998916;28;20709;-77
2022/04/20 02:10:43;;;;;;;5.30;2.80;;;;;;;;;;4994960;28;20228;-76
2022/04/20 02:13:10;;;;;;;6.30;3.57;;;;;;;;;;4994704;28;20217;-77
2022/04/20 02:15:37;;;;;;;5.27;3.07;;;;;;;;;;4998469;28;20639;-77
2022/04/20 02:18:05;;;;;;;6.50;3.10;;;;;;;;;;4994177;28;20664;-76
2022/04/20 02:20:32;;;;;;;8.80;3.67;;;;;;;;;;4994249;28;20233;-76
2022/04/20 02:22:59;;;;;;;5.93;3.03;;;;;;;;;;4997989;28;20212;-77
2022/04/20 02:25:29;;;;;;;5.93;3.53;;;;;;;;;;4999976;28;20208;-76
2022/04/20 02:27:57;;;;;;;7.73;3.30;;;;;;;;;;5000726;28;20632;-77
2022/04/20 02:30:25;;;;;;;7.13;3.13;;;;;;;;;;4996348;28;20221;-76
2022/04/20 02:32:52;;;;;;;10.00;3.10;;;;;;;;;;4999145;28;20208;-77
2022/04/20 02:35:19;;;;;;;8.13;2.80;;;;;;;;;;4996175;28;20209;-77
2022/04/20 02:37:46;;;;;;;7.77;2.97;;;;;;;;;;4997043;28;20198;-77
2022/04/20 02:40:13;;;;;;;6.47;3.37;;;;;;;;;;4994451;28;20707;-75
2022/04/20 02:42:40;;;;;;;8.70;4.30;;;;;;;;;;4996325;28;20776;-77
2022/04/20 02:45:09;;;;;;;9.37;3.20;;;;;;;;;;4994069;28;20207;-77
2022/04/20 02:47:36;;;;;;;7.50;3.30;;;;;;;;;;4994700;28;20201;-76
2022/04/20 02:50:04;;;;;;;9.70;3.50;;;;;;;;;;4991519;28;20240;-77
2022/04/20 02:52:31;;;;;;;6.53;3.43;;;;;;;;;;4993884;28;20213;-77
2022/04/20 02:54:58;;;;;;;9.93;3.90;;;;;;;;;;4997419;28;20209;-77
2022/04/20 02:57:25;;;;;;;6.77;3.30;;;;;;;;;;4995348;28;20671;-77
2022/04/20 02:59:53;;;;;;;7.93;3.20;;;;;;;;;;4996114;28;20216;-76
2022/04/20 03:02:21;;;;;;;7.03;3.30;;;;;;;;;;4995735;28;20208;-77
2022/04/20 03:04:48;;;;;;;8.80;3.20;;;;;;;;;;4996409;28;20243;-75
2022/04/20 03:07:15;;;;;;;6.93;3.50;;;;;;;;;;4994931;28;20299;-76
2022/04/20 03:09:42;;;;;;;6.60;3.50;;;;;;;;;;4995052;28;20209;-77
2022/04/20 03:12:10;;;;;;;5.33;3.20;;;;;;;;;;4990475;28;20323;-77
2022/04/20 03:14:37;;;;;;;8.80;3.60;;;;;;;;;;4993726;28;20690;-77
2022/04/20 03:17:05;;;;;;;9.83;3.67;;;;;;;;;;4997113;28;20212;-77
2022/04/20 03:19:34;;;;;;;6.63;3.50;;;;;;;;;;4996011;28;20736;-77
2022/04/20 03:22:01;;;;;;;7.47;3.53;;;;;;;;;;4994248;28;20229;-77
2022/04/20 03:24:28;;;;;;;7.20;3.20;;;;;;;;;;4997290;28;20296;-76
2022/04/20 03:26:55;;;;;;;6.93;3.50;;;;;;;;;;4993874;28;20216;-77
2022/04/20 03:29:22;;;;;;;9.03;3.43;;;;;;;;;;4995814;28;20197;-77
2022/04/20 03:31:50;;;;;;;6.30;3.30;;;;;;;;;;4997192;28;20226;-77
2022/04/20 03:34:17;;;;;;;7.90;3.40;;;;;;;;;;4996085;28;20470;-76
2022/04/20 03:36:46;;;;;;;9.17;3.93;;;;;;;;;;4995857;28;20201;-77
2022/04/20 03:39:13;;;;;;;8.67;3.30;;;;;;;;;;4994227;28;20219;-76
2022/04/20 03:41:40;;;;;;;9.27;3.67;;;;;;;;;;4995814;28;20237;-76
2022/04/20 03:44:08;;;;;;;14.00;3.60;;;;;;;;;;4991825;28;20236;-76
2022/04/20 03:46:35;;;;;;;9.10;3.70;;;;;;;;;;4995363;28;20468;-77
2022/04/20 03:49:03;;;;;;;9.87;3.83;;;;;;;;;;4994032;28;20300;-76
2022/04/20 03:51:30;;;;;;;8.23;3.20;;;;;;;;;;4997341;28;20322;-76
2022/04/20 03:53:58;;;;;;;6.23;3.20;;;;;;;;;;4989608;28;20239;-76
2022/04/20 03:56:25;;;;;;;7.17;3.60;;;;;;;;;;4988242;28;20466;-75
2022/04/20 03:58:53;;;;;;;10.13;4.00;;;;;;;;;;5001643;28;20447;-76
2022/04/20 04:01:20;;;;;;;9.27;3.70;;;;;;;;;;4990138;28;20229;-76
2022/04/20 04:03:47;;;;;;;8.17;3.83;;;;;;;;;;4993596;28;20201;-77
2022/04/20 04:06:14;;;;;;;9.00;3.90;;;;;;;;;;4992783;28;20201;-76
2022/04/20 04:08:41;;;;;;;8.47;3.67;;;;;;;;;;4994368;28;20678;-76
2022/04/20 04:11:10;;;;;;;9.73;3.70;;;;;;;;;;4991107;28;20476;-76
2022/04/20 04:13:40;;;;;;;9.03;3.70;;;;;;;;;;4992244;28;20460;-76
2022/04/20 04:16:07;;;;;;;9.03;3.63;;;;;;;;;;4993394;28;20208;-76
2022/04/20 04:18:34;;;;;;;8.93;4.17;;;;;;;;;;4992500;28;20456;-75
2022/04/20 04:21:01;;;;;;;6.57;3.60;;;;;;;;;;4990829;28;20228;-77
2022/04/20 04:23:28;;;;;;;6.53;3.20;;;;;;;;;;4994922;28;20211;-76
2022/04/20 04:25:55;;;;;;;8.87;3.70;;;;;;;;;;4994328;28;20648;-77
2022/04/20 04:28:24;;;;;;;7.60;3.60;;;;;;;;;;4992212;28;20200;-76
2022/04/20 04:30:51;;;;;;;5.67;3.30;;;;;;;;;;4995022;28;20220;-77
2022/04/20 04:33:18;;;;;;;6.53;3.30;;;;;;;;;;4990500;28;20212;-76
2022/04/20 04:35:45;;;;;;;6.13;2.83;;;;;;;;;;4988341;28;20213;-76
2022/04/20 04:38:14;;;;;;;6.60;3.47;;;;;;;;;;4992572;28;20212;-77
2022/04/20 04:40:42;;;;;;;5.70;3.20;;;;;;;;;;4995066;28;20297;-77
2022/04/20 04:43:09;;;;;;;9.47;3.73;;;;;;;;;;4989590;28;21073;-76
2022/04/20 04:48:39;;;;;;;5.83;3.27;;;;;;;;;;4995589;28;20278;-76
2022/04/20 04:51:06;;;;;;;7.47;3.47;;;;;;;;;;4992664;28;20227;-77
2022/04/20 04:53:33;;;;;;;10.97;3.70;;;;;;;;;;4993925;28;20307;-76
2022/04/20 04:56:00;;;;;;;10.67;3.43;;;;;;;;;;4990161;28;20208;-77
2022/04/20 04:58:27;;;;;;;6.67;3.40;;;;;;;;;;4997906;28;20205;-77
2022/04/20 05:00:56;;;;;;;7.60;3.80;;;;;;;;;;4999548;28;20239;-76
2022/04/20 05:03:23;;;;;;;10.63;3.93;;;;;;;;;;4996624;28;20234;-76
2022/04/20 05:05:50;;;;;;;9.20;3.40;;;;;;;;;;4997047;28;20658;-77
2022/04/20 05:08:18;;;;;;;11.47;3.67;;;;;;;;;;4995659;28;20235;-75
2022/04/20 05:10:45;;;;;;;9.50;3.63;;;;;;;;;;4992229;28;20722;-76
2022/04/20 05:13:12;;;;;;;7.00;3.20;;;;;;;;;;4996187;28;20216;-77
2022/04/20 05:15:39;;;;;;;10.33;3.47;;;;;;;;;;4995937;28;20472;-77
2022/04/20 05:18:08;;;;;;;7.50;3.20;;;;;;;;;;4996729;28;20204;-77
2022/04/20 05:20:35;;;;;;;8.53;3.10;;;;;;;;;;4994393;28;20606;-78
2022/04/20 05:23:02;;;;;;;5.57;3.17;;;;;;;;;;4994150;28;20806;-78
2022/04/20 05:25:29;;;;;;;7.13;3.20;;;;;;;;;;4997526;28;20468;-78
2022/04/20 05:27:57;;;;;;;6.63;3.23;;;;;;;;;;4991890;28;20655;-78
2022/04/20 05:30:24;;;;;;;8.00;3.13;;;;;;;;;;4993878;28;20593;-78
2022/04/20 05:32:51;;;;;;;8.57;2.93;;;;;;;;;;4993882;28;20627;-78
2022/04/20 05:35:19;;;;;;;10.93;2.70;;;;;;;;;;4998455;28;20215;-78
2022/04/20 05:43:17;;;;;;;4.60;2.50;;;;;;;;;;4998038;28;20200;-78
2022/04/20 05:45:44;;;;;;;7.17;2.73;;;;;;;;;;4998317;28;20208;-78
2022/04/20 05:48:12;;;;;;;6.67;3.40;;;;;;;;;;4995293;28;20208;-78
2022/04/20 05:50:41;;;;;;;8.10;2.77;;;;;;;;;;4997345;28;20225;-78
2022/04/20 05:53:08;;;;;;;5.43;2.93;;;;;;;;;;5011739;23;20708;-82
2022/04/20 05:55:35;;;;;;;4.67;2.67;;;;;;;;;;5014954;28;20201;-81
2022/04/20 05:58:02;;;;;;;10.00;3.27;;;;;;;;;;5011036;28;20292;-82
2022/04/20 06:00:30;;;;;;;4.77;3.37;;;;;;;;;;5013124;28;20255;-81
2022/04/20 06:02:58;;;;;;;6.37;2.77;;;;;;;;;;5021932;28;20255;-81
2022/04/20 06:05:25;;;;;;;6.23;3.40;;;;;;;;;;5025732;28;20208;-81
2022/04/20 06:07:54;;;;;;;9.63;3.37;;;;;;;;;;5020860;28;20204;-82
2022/04/20 06:10:21;;;;;;;6.23;2.97;;;;;;;;;;5020991;28;20224;-82
2022/04/20 06:12:49;;;;;;;7.37;3.33;;;;;;;;;;5020483;28;20200;-82
2022/04/20 06:15:17;;;;;;;5.73;3.00;;;;;;;;;;5019046;28;20300;-82
2022/04/20 06:17:44;;;;;;;7.10;3.20;;;;;;;;;;5020141;28;20215;-81
2022/04/20 06:20:12;;;;;;;8.20;3.10;;;;;;;;;;5018871;28;20256;-82
2022/04/20 06:22:39;;;;;;;7.13;3.13;;;;;;;;;;5018353;28;20208;-83
2022/04/20 06:25:08;;;;;;;7.57;3.30;;;;;;;;;;5010980;28;20217;-83
2022/04/20 06:27:36;;;;;;;8.70;3.30;;;;;;;;;;5013456;28;20204;-83
2022/04/20 06:30:04;;;;;;;9.13;3.20;;;;;;;;;;5020382;28;20235;-83
2022/04/20 06:32:31;;;;;;;10.63;2.80;;;;;;;;;;5019574;28;20235;-83
2022/04/20 06:34:58;;;;;;;8.17;3.30;;;;;;;;;;5019441;28;20213;-83
2022/04/20 06:37:26;;;;;;;5.97;2.80;;;;;;;;;;5017244;28;20718;-84
2022/04/20 06:39:56;;;;;;;6.20;2.63;;;;;;;;;;5013514;28;20213;-81
2022/04/20 06:42:26;;;;;;;5.70;2.80;;;;;;;;;;5014902;28;20296;-82
2022/04/20 06:44:53;;;;;;;4.67;2.10;;;;;;;;;;5016415;28;20283;-83
2022/04/20 06:47:20;;;;;;;6.53;2.33;;;;;;;;;;5019888;28;20216;-82
2022/04/20 06:49:48;;;;;;;4.73;2.57;;;;;;;;;;5024339;28;20263;-83
2022/04/20 07:00:36;;;;;;;4.07;2.20;;;;;;;;;;4995770;28;20232;-82
2022/04/20 07:03:03;;;;;;;4.10;2.13;;;;;;;;;;5017857;28;20295;-82
2022/04/20 07:05:31;;;;;;;3.47;2.33;;;;;;;;;;5015763;28;20287;-82
2022/04/20 07:07:58;;;;;;;3.63;2.43;;;;;;;;;;5009800;28;20263;-82
2022/04/20 07:10:25;;;;;;;6.10;2.67;;;;;;;;;;5011572;28;20275;-82
2022/04/20 07:12:54;;;;;;;5.33;2.13;;;;;;;;;;5012363;28;20670;-81
2022/04/20 07:15:21;;;;;;;5.30;2.20;;;;;;;;;;5005235;28;20216;-81
2022/04/20 07:17:48;;;;;;;6.80;2.13;;;;;;;;;;5000479;28;21487;-82
2022/04/20 07:20:17;;;;;;;3.47;2.30;;;;;;;;;;5001405;28;20349;-82
2022/04/20 07:22:45;;;;;;;5.53;2.00;;;;;;;;;;5003493;28;20676;-82
2022/04/20 07:25:12;;;;;;;3.13;2.10;;;;;;;;;;5003009;28;20212;-82
2022/04/20 07:27:39;;;;;;;5.50;2.07;;;;;;;;;;5000646;28;20258;-82
2022/04/20 07:30:10;;;;;;;3.43;2.20;;;;;;;;;;5001878;28;20205;-83
2022/04/20 07:32:37;;;;;;;6.23;2.53;;;;;;;;;;5004828;28;20211;-85
2022/04/20 07:35:05;;;;;;;4.80;2.20;;;;;;;;;;5004826;28;20218;-83
2022/04/20 07:37:32;;;;;;;9.03;2.20;;;;;;;;;;5003642;28;20208;-84
2022/04/20 07:39:59;;;;;;;7.53;2.00;;;;;;;;;;5000653;28;20236;-85
2022/04/20 07:42:26;;;;;;;5.10;2.00;;;;;;;;;;5000191;28;20197;-83
2022/04/20 07:44:56;;;;;;;4.17;1.83;;;;;;;;;;5001480;28;20204;-84
2022/04/20 07:47:25;;;;;;;2.70;1.67;;;;;;;;;;5012771;28;20208;-83
2022/04/20 07:52:40;;;;;;;2.50;1.63;;;;;;;;;;5004459;28;20701;-82
2022/04/20 07:55:11;;;;;;;3.20;1.70;;;;;;;;;;5002676;28;20212;-80
2022/04/20 07:57:38;;;;;;;3.80;1.90;;;;;;;;;;5003862;28;20424;-82
2022/04/20 08:00:06;;;;;;;2.80;1.77;;;;;;;;;;5004696;28;20303;-81
2022/04/20 08:02:35;;;;;;;4.10;1.60;;;;;;;;;;5007586;28;20246;-80
2022/04/20 08:05:02;;;;;;;3.27;1.70;;;;;;;;;;5001887;28;20208;-81
2022/04/20 08:07:29;;;;;;;2.30;1.60;;;;;;;;;;4999145;28;20575;-81
2022/04/20 08:09:56;;;;;;;3.33;1.60;;;;;;;;;;5006431;28;20621;-81
2022/04/20 08:12:24;;;;;;;2.90;1.87;;;;;;;;;;5008250;28;20287;-80
2022/04/20 08:14:52;;;;;;;5.57;1.70;;;;;;;;;;5006592;28;20565;-81
2022/04/20 08:17:19;;;;;;;4.20;1.63;;;;;;;;;;5005635;28;20243;-81
2022/04/20 08:19:48;;;;;;;4.70;1.80;;;;;;;;;;5008840;28;20295;-82
2022/04/20 08:22:15;;;;;;;4.00;2.13;;;;;;;;;;5006229;28;20232;-81
2022/04/20 08:24:45;;;;;;;2.40;1.67;;;;;;;;;;5006024;28;20215;-81
2022/04/20 08:27:13;;;;;;;3.97;1.70;;;;;;;;;;5010765;28;20661;-81
2022/04/20 08:29:41;;;;;;;7.20;1.80;;;;;;;;;;5019465;28;20273;-81
2022/04/20 08:32:08;;;;;;;2.67;1.83;;;;;;;;;;5015624;28;20231;-80
2022/04/20 08:34:36;;;;;;;4.80;2.17;;;;;;;;;;5006684;28;20201;-81
2022/04/20 08:37:04;;;;;;;2.60;1.80;;;;;;;;;;5001327;28;20286;-82
2022/04/20 08:39:32;;;;;;;3.40;1.90;;;;;;;;;;5004099;28;20311;-81
2022/04/20 08:42:01;;;;;;;4.07;1.90;;;;;;;;;;5005653;28;20223;-82
2022/04/20 08:44:29;;;;;;;5.50;1.90;;;;;;;;;;4999649;28;20212;-81
2022/04/20 08:47:01;;;;;;;5.47;2.10;;;;;;;;;;5005283;28;20215;-81
2022/04/20 08:49:28;;;;;;;4.90;2.27;;;;;;;;;;5004940;28;20695;-80
2022/04/20 08:54:42;;;;;;;4.30;2.03;;;;;;;;;;5003528;28;20681;-80
2022/04/20 08:57:20;;;;;;;6.50;2.07;;;;;;;;;;5003229;28;20224;-80
2022/04/20 08:59:48;;;;;;;3.67;2.27;;;;;;;;;;5006220;28;20216;-80
2022/04/20 09:02:16;;;;;;;3.43;2.07;;;;;;;;;;5003640;28;20223;-80
2022/04/20 09:04:43;;;;;;;5.17;2.30;;;;;;;;;;5008130;28;20200;-81
2022/04/20 09:07:11;;;;;;;4.33;2.13;;;;;;;;;;4996047;28;20214;-78
2022/04/20 09:09:39;;;;;;;7.47;2.10;;;;;;;;;;5004026;28;20300;-80
2022/04/20 09:12:11;;;;;;;6.87;2.40;;;;;;;;;;5005238;28;20227;-79
2022/04/20 09:14:40;;;;;;;5.93;2.40;;;;;;;;;;5005670;28;20212;-80
2022/04/20 09:17:08;;;;;;;4.10;2.37;;;;;;;;;;5001244;28;20212;-80
2022/04/20 09:19:36;;;;;;;4.53;2.40;;;;;;;;;;4999430;28;21129;-81
2022/04/20 09:22:17;;;;;;;5.70;2.37;;;;;;;;;;5000546;28;20236;-80
2022/04/20 09:24:58;;;;;;;4.03;2.10;;;;;;;;;;5005103;28;20576;-82
2022/04/20 09:27:27;;;;;;;5.97;2.33;;;;;;;;;;5009497;28;20208;-82
2022/04/20 09:29:55;;;;;;;5.47;2.33;;;;;;;;;;5016096;28;20210;-82
2022/04/20 09:32:32;;;;;;;4.67;2.00;;;;;;;;;;5019804;28;20203;-79
2022/04/20 09:34:59;;;;;;;12.40;2.57;;;;;;;;;;5019750;28;20203;-79
2022/04/20 09:37:27;;;;;;;4.17;2.27;;;;;;;;;;5004501;28;20219;-81
2022/04/20 09:39:54;;;;;;;4.00;2.80;;;;;;;;;;5001977;28;20645;-82
2022/04/20 09:42:22;;;;;;;5.20;2.20;;;;;;;;;;5002592;28;20263;-80
2022/04/20 09:44:59;;;;;;;6.47;2.23;;;;;;;;;;4998407;28;20209;-81
2022/04/20 09:50:12;;;;;;;5.83;2.03;;;;;;;;;;4985175;28;20199;-81
2022/04/20 09:52:40;;;;;;;3.43;2.00;;;;;;;;;;5002089;28;20204;-81
2022/04/20 09:55:08;;;;;;;3.57;2.10;;;;;;;;;;5003269;28;20212;-81
2022/04/20 09:57:37;;;;;;;4.93;2.27;;;;;;;;;;4999825;28;20200;-80
2022/04/20 10:00:10;;;;;;;4.93;2.13;;;;;;;;;;5001189;28;20477;-80
2022/04/20 10:02:45;;;;;;;5.70;2.33;;;;;;;;;;5000255;28;20228;-82
2022/04/20 10:05:12;;;;;;;9.80;2.40;;;;;;;;;;5004801;28;20211;-82
2022/04/20 10:07:39;;;;;;;6.60;2.07;;;;;;;;;;4995000;28;20211;-81
2022/04/20 10:10:07;;;;;;;4.80;2.23;;;;;;;;;;5000970;28;20208;-81
2022/04/20 10:12:37;;;;;;;8.43;2.40;;;;;;;;;;5003552;28;20201;-81
2022/04/20 10:17:53;;;;;;;5.60;2.27;;;;;;;;;;4999120;28;20203;-80
2022/04/20 10:20:21;;;;;;;3.80;2.40;;;;;;;;;;5002446;28;20220;-80
2022/04/20 10:22:49;;;;;;;7.63;3.23;;;;;;;;;;5004143;28;20221;-81
2022/04/20 10:25:16;;;;;;;4.67;2.67;;;;;;;;;;5001019;28;20334;-81
2022/04/20 10:27:55;;;;;;;6.90;2.13;;;;;;;;;;5004522;28;20220;-81
2022/04/20 10:30:26;;;;;;;3.47;2.03;;;;;;;;;;5003392;28;20315;-81
2022/04/20 10:33:02;;;;;;;3.73;2.20;;;;;;;;;;5001976;28;20208;-81
2022/04/20 10:35:29;;;;;;;4.70;2.60;;;;;;;;;;5006256;28;20240;-81
2022/04/20 10:38:08;;;;;;;3.30;2.30;;;;;;;;;;5010253;28;20231;-82
2022/04/20 10:40:35;;;;;;;2.97;2.27;;;;;;;;;;5007351;28;20212;-81
2022/04/20 10:43:18;;;;;;;3.37;2.20;;;;;;;;;;5002242;28;20287;-81
2022/04/20 10:46:02;;;;;;;2.97;2.20;;;;;;;;;;5008777;28;20204;-82
2022/04/20 10:48:42;;;;;;;5.63;2.33;;;;;;;;;;5006583;28;20269;-80
2022/04/20 10:51:14;;;;;;;4.07;2.17;;;;;;;;;;5010925;28;20312;-80
2022/04/20 10:53:42;;;;;;;3.90;2.50;;;;;;;;;;5002453;28;20750;-83
2022/04/20 10:56:10;;;;;;;3.57;2.37;;;;;;;;;;5008664;28;20310;-81
2022/04/20 10:58:38;;;;;;;3.80;2.13;;;;;;;;;;5007467;28;20254;-80
2022/04/20 11:01:09;;;;;;;3.80;2.40;;;;;;;;;;5004937;28;20243;-79
2022/04/20 11:03:51;;;;;;;3.17;2.23;;;;;;;;;;5000943;28;20223;-80
2022/04/20 11:06:19;;;;;;;3.03;2.00;;;;;;;;;;5006112;28;20250;-81
2022/04/20 11:08:47;;;;;;;4.13;2.37;;;;;;;;;;5004809;28;20206;-81
2022/04/20 11:19:52;;;;;;;4.03;2.40;;;;;;;;;;5006321;28;20218;-80
2022/04/20 11:22:21;;;;;;;5.93;2.73;;;;;;;;;;5003016;28;20830;-79
2022/04/20 11:24:49;;;;;;;6.97;2.00;;;;;;;;;;5005307;28;20251;-81
2022/04/20 11:29:59;;;;;;;6.07;2.00;;;;;;;;;;5002037;28;20268;-82
2022/04/20 11:32:27;;;;;;;4.77;1.73;;;;;;;;;;5000001;28;20761;-80
2022/04/20 11:35:04;;;;;;;3.20;1.97;;;;;;;;;;5003466;28;20212;-81
2022/04/20 11:37:33;;;;;;;6.53;2.17;;;;;;;;;;5008015;28;20278;-81
2022/04/20 11:40:01;;;;;;;4.80;2.27;;;;;;;;;;5010553;28;20682;-82
2022/04/20 11:42:28;;;;;;;3.97;2.20;;;;;;;;;;5013599;28;20224;-82
2022/04/20 11:44:55;;;;;;;3.63;2.00;;;;;;;;;;5015342;28;20639;-82
2022/04/20 11:47:23;;;;;;;4.70;2.00;;;;;;;;;;5006994;28;20197;-81
2022/04/20 11:49:50;;;;;;;3.60;1.90;;;;;;;;;;4999988;28;20208;-83
2022/04/20 11:52:20;;;;;;;3.03;1.73;;;;;;;;;;5006142;28;20216;-82
2022/04/20 11:54:55;;;;;;;3.73;1.73;;;;;;;;;;5027713;23;20236;-82
2022/04/20 11:57:24;;;;;;;2.47;2.03;;;;;;;;;;5005211;28;20208;-82
2022/04/20 12:00:13;;;;;;;5.40;1.97;;;;;;;;;;5005233;28;20215;-81
2022/04/20 12:02:48;;;;;;;6.73;1.73;;;;;;;;;;5005346;28;20586;-81
2022/04/20 12:05:18;;;;;;;4.23;2.10;;;;;;;;;;4983953;28;20201;-81
2022/04/20 12:07:46;;;;;;;3.90;1.83;;;;;;;;;;4985141;28;20676;-83
2022/04/20 12:10:30;;;;;;;5.50;2.00;;;;;;;;;;4984129;28;20291;-82
2022/04/20 12:13:05;;;;;;;2.97;2.00;;;;;;;;;;4985224;28;20326;-82
2022/04/20 12:15:44;;;;;;;2.57;1.97;;;;;;;;;;4985056;28;20219;-82
2022/04/20 12:18:23;;;;;;;3.10;1.80;;;;;;;;;;4980337;28;20215;-82
2022/04/20 12:20:50;;;;;;;3.87;2.00;;;;;;;;;;4984120;28;20208;-84
2022/04/20 12:23:22;;;;;;;3.30;1.60;;;;;;;;;;4984371;28;20233;-83
2022/04/20 12:25:52;;;;;;;2.20;1.70;;;;;;;;;;4979177;28;20563;-83
2022/04/20 12:31:31;;;;;;;5.93;1.83;;;;;;;;;;4982328;28;20199;-83
2022/04/20 12:34:06;;;;;;;3.83;1.70;;;;;;;;;;4978939;28;20295;-83
2022/04/20 12:36:53;;;;;;;6.13;1.90;;;;;;;;;;4983368;28;20652;-83
2022/04/20 12:39:27;;;;;;;4.23;1.90;;;;;;;;;;4983061;28;20673;-83
2022/04/20 12:42:02;;;;;;;3.27;1.70;;;;;;;;;;4986647;28;20288;-83
2022/04/20 12:44:40;;;;;;;4.03;1.80;;;;;;;;;;4983124;28;20224;-83
2022/04/20 12:47:28;;;;;;;2.70;1.87;;;;;;;;;;4985568;28;20751;-84
2022/04/20 12:50:10;;;;;;;3.37;1.60;;;;;;;;;;4985970;28;20209;-84
2022/04/20 12:52:52;;;;;;;2.57;1.60;;;;;;;;;;4983967;28;20204;-84
2022/04/20 12:55:33;;;;;;;3.77;1.70;;;;;;;;;;4983642;28;20233;-84
2022/04/20 13:03:40;;;;;;;3.93;1.57;;;;;;;;;;4980107;28;20296;-83
2022/04/20 13:06:10;;;;;;;5.13;1.90;;;;;;;;;;4987778;28;20265;-84
2022/04/20 13:08:44;;;;;;;5.00;2.13;;;;;;;;;;4985657;28;20627;-83
2022/04/20 13:11:12;;;;;;;5.10;1.80;;;;;;;;;;4989274;28;20207;-83
2022/04/20 13:13:51;;;;;;;2.30;1.50;;;;;;;;;;4986679;28;20834;-84
2022/04/20 13:16:21;;;;;;;4.57;1.90;;;;;;;;;;4986124;28;20580;-83
2022/04/20 13:18:51;;;;;;;4.07;2.20;;;;;;;;;;4987328;28;20574;-83
2022/04/20 13:21:18;;;;;;;4.70;1.83;;;;;;;;;;4989242;28;20209;-83
2022/04/20 13:23:49;;;;;;;2.67;1.60;;;;;;;;;;4983685;28;21073;-83
2022/04/20 13:29:01;;;;;;;3.87;2.20;;;;;;;;;;4966014;28;20347;-83
2022/04/20 13:31:29;;;;;;;3.63;2.10;;;;;;;;;;4976910;28;20198;-82
2022/04/20 13:33:56;;;;;;;5.80;2.07;;;;;;;;;;4968124;28;20714;-81
2022/04/20 13:36:23;;;;;;;2.97;2.00;;;;;;;;;;4963532;28;20625;-81
2022/04/20 13:38:52;;;;;;;7.10;2.10;;;;;;;;;;4972135;28;20323;-81
2022/04/20 13:41:22;;;;;;;3.77;1.90;;;;;;;;;;4969989;28;20591;-81
2022/04/20 13:43:53;;;;;;;4.03;2.00;;;;;;;;;;4977510;28;20319;-81
2022/04/20 13:46:22;;;;;;;4.83;2.10;;;;;;;;;;4969952;28;20221;-82
2022/04/20 13:48:51;;;;;;;3.13;2.03;;;;;;;;;;4968228;28;20237;-83
2022/04/20 13:51:18;;;;;;;7.80;2.00;;;;;;;;;;4971788;28;20244;-82
2022/04/20 13:53:48;;;;;;;2.17;1.47;;;;;;;;;;4969488;28;21499;-82
2022/04/20 13:56:17;;;;;;;2.87;1.90;;;;;;;;;;4973936;28;20221;-82
2022/04/20 13:58:46;;;;;;;3.63;1.77;;;;;;;;;;4975012;28;20532;-81
2022/04/20 14:01:20;;;;;;;4.57;2.30;;;;;;;;;;4972424;28;20229;-82
2022/04/20 14:03:48;;;;;;;7.03;2.27;;;;;;;;;;4975093;28;20232;-82
2022/04/20 14:06:18;;;;;;;7.00;2.47;;;;;;;;;;4971582;28;20217;-83
2022/04/20 14:08:51;;;;;;;3.67;2.00;;;;;;;;;;4967829;28;20217;-83
2022/04/20 14:11:19;;;;;;;2.27;1.60;;;;;;;;;;4974300;28;20202;-82
2022/04/20 14:13:47;;;;;;;4.30;2.40;;;;;;;;;;4969801;28;20268;-82
2022/04/20 14:16:14;;;;;;;4.50;2.30;;;;;;;;;;4969844;28;20229;-83
2022/04/20 14:18:42;;;;;;;5.43;2.37;;;;;;;;;;4968474;28;20253;-82
2022/04/20 14:21:13;;;;;;;4.10;1.90;;;;;;;;;;4967720;28;20220;-82
2022/04/20 14:23:42;;;;;;;4.57;1.93;;;;;;;;;;4966951;28;20241;-83
2022/04/20 14:34:25;;;;;;;3.17;1.97;;;;;;;;;;4965846;28;20294;-82
2022/04/20 14:36:52;;;;;;;5.67;1.77;;;;;;;;;;4967149;28;20288;-82
2022/04/20 14:39:19;;;;;;;3.10;1.77;;;;;;;;;;4963698;28;20761;-81
2022/04/20 14:41:46;;;;;;;4.13;1.60;;;;;;;;;;4966109;28;20241;-81
2022/04/20 14:44:15;;;;;;;3.63;1.80;;;;;;;;;;4967899;28;20893;-82
2022/04/20 14:46:43;;;;;;;5.07;2.10;;;;;;;;;;4968319;28;20228;-83
2022/04/20 14:49:13;;;;;;;2.63;1.60;;;;;;;;;;4963011;28;20229;-82
2022/04/20 14:51:44;;;;;;;2.93;1.77;;;;;;;;;;4959547;28;20208;-83
2022/04/20 14:54:17;;;;;;;4.20;1.70;;;;;;;;;;4962261;28;20236;-82
2022/04/20 14:56:45;;;;;;;2.53;1.70;;;;;;;;;;4963898;28;20206;-81
2022/04/20 14:59:12;;;;;;;2.40;1.50;;;;;;;;;;4962805;28;20233;-82
2022/04/20 15:01:44;;;;;;;3.60;1.63;;;;;;;;;;4963859;28;20305;-83
2022/04/20 15:04:11;;;;;;;3.67;1.50;;;;;;;;;;4965463;28;20319;-83
2022/04/20 15:06:38;;;;;;;3.17;1.50;;;;;;;;;;4964188;28;20563;-82
2022/04/20 15:09:08;;;;;;;4.27;1.57;;;;;;;;;;4966832;28;20273;-82
2022/04/20 15:11:39;;;;;;;2.57;1.50;;;;;;;;;;4965216;28;20213;-83
2022/04/20 15:14:10;;;;;;;4.00;1.40;;;;;;;;;;4966614;28;20698;-83
2022/04/20 15:16:37;;;;;;;4.60;1.70;;;;;;;;;;4970074;28;20666;-83
2022/04/20 15:19:12;;;;;;;2.37;1.43;;;;;;;;;;4964851;28;20209;-83
2022/04/20 15:21:41;;;;;;;2.67;1.40;;;;;;;;;;4953978;28;20228;-84
2022/04/20 15:24:08;;;;;;;3.00;1.73;;;;;;;;;;4966068;28;20240;-82
2022/04/20 15:26:36;;;;;;;3.43;1.43;;;;;;;;;;4967082;28;20688;-83
2022/04/20 15:29:05;;;;;;;3.13;1.50;;;;;;;;;;4966139;28;20702;-83
2022/04/20 15:31:34;;;;;;;4.67;1.60;;;;;;;;;;4961985;28;20631;-83
2022/04/20 15:34:07;;;;;;;5.40;1.50;;;;;;;;;;4966304;28;20745;-84
2022/04/20 15:36:38;;;;;;;4.70;1.80;;;;;;;;;;4963855;28;20210;-84
2022/04/20 15:39:09;;;;;;;3.00;1.70;;;;;;;;;;4963621;28;20213;-83
2022/04/20 15:41:38;;;;;;;3.60;1.73;;;;;;;;;;4962558;28;20202;-84
2022/04/20 15:44:10;;;;;;;3.37;1.50;;;;;;;;;;4964049;28;20233;-83
2022/04/20 15:46:43;;;;;;;4.63;1.67;;;;;;;;;;4971442;28;20216;-84
2022/04/20 15:49:13;;;;;;;4.60;1.50;;;;;;;;;;4968562;28;20202;-83
2022/04/20 15:51:44;;;;;;;3.10;1.73;;;;;;;;;;4964281;28;20218;-84
2022/04/20 15:54:13;;;;;;;2.43;1.80;;;;;;;;;;4969156;28;20295;-84
2022/04/20 16:02:13;;;;;;;3.57;2.07;;;;;;;;;;4965302;28;20213;-84